sensor_id;sensor_type;location;lat;lon;timestamp;pressure;altitude;pressure_sealevel;temperature;humidity
55576;BME280;41437;45.478;9.116;2022-07-23T00:00:07;99746.63;;;34.62;32.10
55576;BME280;41437;45.478;9.116;2022-07-23T00:03:09;99749.06;;;34.60;32.07
55576;BME280;41437;45.478;9.116;2022-07-23T00:06:10;99745.84;;;34.58;32.26
55576;BME280;41437;45.478;9.116;2022-07-23T00:09:13;99743.38;;;34.56;32.21
55576;BME280;41437;45.478;9.116;2022-07-23T00:12:15;99740.16;;;34.54;32.09
55576;BME280;41437;45.478;9.116;2022-07-23T00:15:16;99733.22;;;34.51;32.32
55576;BME280;41437;45.478;9.116;2022-07-23T00:18:18;99725.88;;;34.50;32.42
55576;BME280;41437;45.478;9.116;2022-07-23T00:21:19;99716.94;;;34.48;32.20
55576;BME280;41437;45.478;9.116;2022-07-23T00:24:22;99707.91;;;34.46;32.34
55576;BME280;41437;45.478;9.116;2022-07-23T00:27:23;99684.66;;;34.44;32.27
55576;BME280;41437;45.478;9.116;2022-07-23T00:30:25;99679.78;;;34.41;32.29
55576;BME280;41437;45.478;9.116;2022-07-23T00:33:29;99682.66;;;34.41;32.35
55576;BME280;41437;45.478;9.116;2022-07-23T00:36:31;99672.44;;;34.40;32.24
55576;BME280;41437;45.478;9.116;2022-07-23T00:39:33;99672.06;;;34.38;32.32
55576;BME280;41437;45.478;9.116;2022-07-23T00:42:35;99665.16;;;34.36;32.29
55576;BME280;41437;45.478;9.116;2022-07-23T00:45:36;99666.38;;;34.35;32.42
55576;BME280;41437;45.478;9.116;2022-07-23T00:48:38;99669.66;;;34.33;32.19
55576;BME280;41437;45.478;9.116;2022-07-23T00:51:39;99670.91;;;34.32;32.36
55576;BME280;41437;45.478;9.116;2022-07-23T00:54:42;99666.03;;;34.29;32.51
55576;BME280;41437;45.478;9.116;2022-07-23T00:57:44;99683.63;;;34.28;32.32
55576;BME280;41437;45.478;9.116;2022-07-23T01:00:45;99689.75;;;34.26;32.29
55576;BME280;41437;45.478;9.116;2022-07-23T01:03:47;99692.25;;;34.24;32.34
55576;BME280;41437;45.478;9.116;2022-07-23T01:06:48;99695.53;;;34.22;32.54
55576;BME280;41437;45.478;9.116;2022-07-23T01:09:52;99703.72;;;34.20;32.54
55576;BME280;41437;45.478;9.116;2022-07-23T01:12:53;99710.69;;;34.19;32.29
55576;BME280;41437;45.478;9.116;2022-07-23T01:15:54;99712.72;;;34.19;32.53
55576;BME280;41437;45.478;9.116;2022-07-23T01:18:56;99720.91;;;34.17;32.41
55576;BME280;41437;45.478;9.116;2022-07-23T01:21:58;99717.69;;;34.15;32.55
55576;BME280;41437;45.478;9.116;2022-07-23T01:25:04;99720.13;;;34.13;32.78
55576;BME280;41437;45.478;9.116;2022-07-23T01:28:06;99724.25;;;34.12;32.48
55576;BME280;41437;45.478;9.116;2022-07-23T01:31:07;99721.00;;;34.10;32.62
55576;BME280;41437;45.478;9.116;2022-07-23T01:34:09;99718.53;;;34.08;32.58
55576;BME280;41437;45.478;9.116;2022-07-23T01:37:10;99717.75;;;34.08;32.56
55576;BME280;41437;45.478;9.116;2022-07-23T01:40:13;99719.41;;;34.05;32.40
55576;BME280;41437;45.478;9.116;2022-07-23T01:43:15;99710.44;;;34.03;32.63
55576;BME280;41437;45.478;9.116;2022-07-23T01:46:16;99716.59;;;34.01;32.54
55576;BME280;41437;45.478;9.116;2022-07-23T01:49:18;99719.84;;;34.00;32.61
55576;BME280;41437;45.478;9.116;2022-07-23T01:52:19;99719.47;;;33.98;32.64
55576;BME280;41437;45.478;9.116;2022-07-23T01:55:22;99716.25;;;33.96;32.69
55576;BME280;41437;45.478;9.116;2022-07-23T01:58:24;99713.75;;;33.94;32.78
55576;BME280;41437;45.478;9.116;2022-07-23T02:01:25;99716.25;;;33.92;32.55
55576;BME280;41437;45.478;9.116;2022-07-23T02:04:27;99718.69;;;33.90;32.72
55576;BME280;41437;45.478;9.116;2022-07-23T02:07:28;99725.66;;;33.89;32.68
55576;BME280;41437;45.478;9.116;2022-07-23T02:10:31;99724.03;;;33.88;32.74
55576;BME280;41437;45.478;9.116;2022-07-23T02:13:33;99729.34;;;33.86;32.69
55576;BME280;41437;45.478;9.116;2022-07-23T02:16:34;99733.44;;;33.85;32.71
55576;BME280;41437;45.478;9.116;2022-07-23T02:19:36;99724.50;;;33.83;32.62
55576;BME280;41437;45.478;9.116;2022-07-23T02:22:37;99720.00;;;33.82;32.75
55576;BME280;41437;45.478;9.116;2022-07-23T02:25:40;99715.94;;;33.80;32.83
55576;BME280;41437;45.478;9.116;2022-07-23T02:28:42;99723.72;;;33.79;32.88
55576;BME280;41437;45.478;9.116;2022-07-23T02:31:43;99723.31;;;33.77;32.62
55576;BME280;41437;45.478;9.116;2022-07-23T02:34:45;99722.94;;;33.75;32.89
55576;BME280;41437;45.478;9.116;2022-07-23T02:37:47;99720.06;;;33.75;32.66
55576;BME280;41437;45.478;9.116;2022-07-23T02:40:50;99718.84;;;33.72;32.77
55576;BME280;41437;45.478;9.116;2022-07-23T02:43:51;99715.19;;;33.72;32.86
55576;BME280;41437;45.478;9.116;2022-07-23T02:46:52;99713.16;;;33.69;32.80
55576;BME280;41437;45.478;9.116;2022-07-23T02:49:54;99725.84;;;33.68;32.86
55576;BME280;41437;45.478;9.116;2022-07-23T02:52:56;99738.50;;;33.67;32.77
55576;BME280;41437;45.478;9.116;2022-07-23T02:55:58;99730.34;;;33.65;32.94
55576;BME280;41437;45.478;9.116;2022-07-23T02:59:00;99740.16;;;33.64;32.91
55576;BME280;41437;45.478;9.116;2022-07-23T03:02:01;99740.56;;;33.63;32.91
55576;BME280;41437;45.478;9.116;2022-07-23T03:05:03;99732.44;;;33.61;32.90
55576;BME280;41437;45.478;9.116;2022-07-23T03:08:04;99747.13;;;33.60;32.95
55576;BME280;41437;45.478;9.116;2022-07-23T03:11:07;99748.38;;;33.59;32.92
55576;BME280;41437;45.478;9.116;2022-07-23T03:14:11;99746.75;;;33.58;32.82
55576;BME280;41437;45.478;9.116;2022-07-23T03:17:13;99736.97;;;33.55;32.95
55576;BME280;41437;45.478;9.116;2022-07-23T03:20:14;99740.25;;;33.54;33.00
55576;BME280;41437;45.478;9.116;2022-07-23T03:23:16;99744.34;;;33.53;32.97
55576;BME280;41437;45.478;9.116;2022-07-23T03:26:19;99737.78;;;33.52;32.70
55576;BME280;41437;45.478;9.116;2022-07-23T03:29:20;99738.66;;;33.49;32.92
55576;BME280;41437;45.478;9.116;2022-07-23T03:32:22;99734.97;;;33.48;32.88
55576;BME280;41437;45.478;9.116;2022-07-23T03:35:24;99729.66;;;33.43;33.01
55576;BME280;41437;45.478;9.116;2022-07-23T03:38:26;99735.81;;;33.45;32.98
55576;BME280;41437;45.478;9.116;2022-07-23T03:41:29;99748.47;;;33.44;33.01
55576;BME280;41437;45.478;9.116;2022-07-23T03:44:30;99756.59;;;33.42;32.94
55576;BME280;41437;45.478;9.116;2022-07-23T03:47:32;99758.28;;;33.40;32.99
55576;BME280;41437;45.478;9.116;2022-07-23T03:50:33;99755.81;;;33.38;32.94
55576;BME280;41437;45.478;9.116;2022-07-23T03:53:37;99757.06;;;33.37;33.00
55576;BME280;41437;45.478;9.116;2022-07-23T03:56:40;99752.56;;;33.36;32.84
55576;BME280;41437;45.478;9.116;2022-07-23T03:59:42;99749.31;;;33.34;33.17
55576;BME280;41437;45.478;9.116;2022-07-23T04:02:44;99745.25;;;33.32;33.10
55576;BME280;41437;45.478;9.116;2022-07-23T04:05:45;99744.47;;;33.31;33.03
55576;BME280;41437;45.478;9.116;2022-07-23T04:08:47;99750.56;;;33.30;33.15
55576;BME280;41437;45.478;9.116;2022-07-23T04:11:49;99741.19;;;33.29;33.14
55576;BME280;41437;45.478;9.116;2022-07-23T04:14:51;99734.28;;;33.26;33.06
55576;BME280;41437;45.478;9.116;2022-07-23T04:17:52;99734.69;;;33.25;33.09
55576;BME280;41437;45.478;9.116;2022-07-23T04:20:54;99742.44;;;33.24;33.08
55576;BME280;41437;45.478;9.116;2022-07-23T04:23:56;99746.53;;;33.23;33.17
55576;BME280;41437;45.478;9.116;2022-07-23T04:26:58;99743.28;;;33.21;33.28
55576;BME280;41437;45.478;9.116;2022-07-23T04:30:00;99746.56;;;33.20;33.18
55576;BME280;41437;45.478;9.116;2022-07-23T04:33:01;99744.94;;;33.19;33.24
55576;BME280;41437;45.478;9.116;2022-07-23T04:36:05;99750.22;;;33.17;33.28
55576;BME280;41437;45.478;9.116;2022-07-23T04:39:07;99743.72;;;33.16;33.29
55576;BME280;41437;45.478;9.116;2022-07-23T04:42:10;99744.13;;;33.15;33.33
55576;BME280;41437;45.478;9.116;2022-07-23T04:45:11;99748.22;;;33.14;33.22
55576;BME280;41437;45.478;9.116;2022-07-23T04:48:13;99749.44;;;33.13;33.11
55576;BME280;41437;45.478;9.116;2022-07-23T04:51:14;99753.53;;;33.12;33.13
55576;BME280;41437;45.478;9.116;2022-07-23T04:54:15;99751.91;;;33.11;33.31
55576;BME280;41437;45.478;9.116;2022-07-23T04:57:19;99741.72;;;33.10;33.16
55576;BME280;41437;45.478;9.116;2022-07-23T05:00:20;99741.31;;;33.08;33.55
55576;BME280;41437;45.478;9.116;2022-07-23T05:03:21;99739.69;;;33.07;33.39
55576;BME280;41437;45.478;9.116;2022-07-23T05:06:23;99743.78;;;33.06;33.23
55576;BME280;41437;45.478;9.116;2022-07-23T05:09:24;99748.69;;;33.05;33.24
55576;BME280;41437;45.478;9.116;2022-07-23T05:12:27;99741.34;;;33.04;33.18
55576;BME280;41437;45.478;9.116;2022-07-23T05:15:29;99750.31;;;33.02;33.50
55576;BME280;41437;45.478;9.116;2022-07-23T05:18:30;99755.22;;;33.02;33.37
55576;BME280;41437;45.478;9.116;2022-07-23T05:21:32;99758.50;;;33.00;33.23
55576;BME280;41437;45.478;9.116;2022-07-23T05:24:33;99751.16;;;32.99;33.38
55576;BME280;41437;45.478;9.116;2022-07-23T05:27:36;99756.84;;;32.99;33.51
55576;BME280;41437;45.478;9.116;2022-07-23T05:30:38;99765.03;;;32.97;33.47
55576;BME280;41437;45.478;9.116;2022-07-23T05:33:39;99765.03;;;32.97;33.55
55576;BME280;41437;45.478;9.116;2022-07-23T05:36:41;99768.31;;;32.96;33.34
55576;BME280;41437;45.478;9.116;2022-07-23T05:39:42;99773.19;;;32.95;33.38
55576;BME280;41437;45.478;9.116;2022-07-23T05:42:45;99775.66;;;32.93;33.51
55576;BME280;41437;45.478;9.116;2022-07-23T05:45:46;99783.78;;;32.91;33.37
55576;BME280;41437;45.478;9.116;2022-07-23T05:48:48;99784.63;;;32.92;33.57
55576;BME280;41437;45.478;9.116;2022-07-23T05:51:50;99792.75;;;32.90;33.52
55576;BME280;41437;45.478;9.116;2022-07-23T05:54:52;99799.28;;;32.90;33.54
55576;BME280;41437;45.478;9.116;2022-07-23T05:57:55;99804.16;;;32.90;33.45
55576;BME280;41437;45.478;9.116;2022-07-23T06:00:56;99803.78;;;32.88;33.72
55576;BME280;41437;45.478;9.116;2022-07-23T06:03:57;99809.50;;;32.88;33.45
55576;BME280;41437;45.478;9.116;2022-07-23T06:06:59;99807.03;;;32.86;33.56
55576;BME280;41437;45.478;9.116;2022-07-23T06:10:00;99808.69;;;32.87;33.48
55576;BME280;41437;45.478;9.116;2022-07-23T06:13:03;99809.06;;;32.86;33.73
55576;BME280;41437;45.478;9.116;2022-07-23T06:16:05;99814.78;;;32.86;33.75
55576;BME280;41437;45.478;9.116;2022-07-23T06:19:06;99811.13;;;32.85;33.53
55576;BME280;41437;45.478;9.116;2022-07-23T06:22:08;99800.94;;;32.84;33.50
55576;BME280;41437;45.478;9.116;2022-07-23T06:25:09;99801.75;;;32.85;33.63
55576;BME280;41437;45.478;9.116;2022-07-23T06:28:12;99800.13;;;32.84;33.60
55576;BME280;41437;45.478;9.116;2022-07-23T06:31:13;99803.78;;;32.84;33.57
55576;BME280;41437;45.478;9.116;2022-07-23T06:34:15;99806.63;;;32.84;33.68
55576;BME280;41437;45.478;9.116;2022-07-23T06:37:16;99799.31;;;32.83;33.37
55576;BME280;41437;45.478;9.116;2022-07-23T06:40:19;99792.75;;;32.83;33.49
55576;BME280;41437;45.478;9.116;2022-07-23T06:43:22;99795.63;;;32.83;33.49
55576;BME280;41437;45.478;9.116;2022-07-23T06:46:23;99805.03;;;32.83;33.57
55576;BME280;41437;45.478;9.116;2022-07-23T06:49:25;99806.63;;;32.84;33.54
55576;BME280;41437;45.478;9.116;2022-07-23T06:52:26;99810.72;;;32.83;33.40
55576;BME280;41437;45.478;9.116;2022-07-23T06:55:28;99816.44;;;32.83;33.40
55576;BME280;41437;45.478;9.116;2022-07-23T06:58:31;99818.88;;;32.85;33.67
55576;BME280;41437;45.478;9.116;2022-07-23T07:01:32;99815.59;;;32.86;33.61
55576;BME280;41437;45.478;9.116;2022-07-23T07:04:33;99813.97;;;32.85;33.64
55576;BME280;41437;45.478;9.116;2022-07-23T07:07:35;99822.94;;;32.87;33.50
55576;BME280;41437;45.478;9.116;2022-07-23T07:10:36;99819.25;;;32.87;33.47
55576;BME280;41437;45.478;9.116;2022-07-23T07:13:39;99836.78;;;32.89;33.58
55576;BME280;41437;45.478;9.116;2022-07-23T07:16:41;99831.91;;;32.89;33.52
55576;BME280;41437;45.478;9.116;2022-07-23T07:19:42;99833.50;;;32.90;33.50
55576;BME280;41437;45.478;9.116;2022-07-23T07:22:44;99824.94;;;32.90;33.30
55576;BME280;41437;45.478;9.116;2022-07-23T07:25:45;99830.31;;;32.92;33.49
55576;BME280;41437;45.478;9.116;2022-07-23T07:28:48;99826.22;;;32.93;33.45
55576;BME280;41437;45.478;9.116;2022-07-23T07:31:49;99824.16;;;32.93;33.48
55576;BME280;41437;45.478;9.116;2022-07-23T07:34:51;99824.56;;;32.95;33.60
55576;BME280;41437;45.478;9.116;2022-07-23T07:37:52;99822.53;;;32.96;33.60
55576;BME280;41437;45.478;9.116;2022-07-23T07:40:54;99820.50;;;32.96;33.42
55576;BME280;41437;45.478;9.116;2022-07-23T07:43:57;99821.31;;;32.97;33.53
55576;BME280;41437;45.478;9.116;2022-07-23T07:46:58;99828.63;;;32.98;33.43
55576;BME280;41437;45.478;9.116;2022-07-23T07:49:59;99828.22;;;32.99;33.58
55576;BME280;41437;45.478;9.116;2022-07-23T07:53:01;99831.06;;;32.99;33.46
55576;BME280;41437;45.478;9.116;2022-07-23T07:56:02;99833.53;;;33.01;33.63
55576;BME280;41437;45.478;9.116;2022-07-23T07:59:05;99828.63;;;33.01;33.54
55576;BME280;41437;45.478;9.116;2022-07-23T08:02:07;99841.66;;;33.02;33.51
55576;BME280;41437;45.478;9.116;2022-07-23T08:05:09;99848.19;;;33.03;33.68
55576;BME280;41437;45.478;9.116;2022-07-23T08:08:11;99844.09;;;33.04;33.68
55576;BME280;41437;45.478;9.116;2022-07-23T08:11:14;99851.44;;;33.05;33.61
55576;BME280;41437;45.478;9.116;2022-07-23T08:14:17;99848.19;;;33.07;33.69
55576;BME280;41437;45.478;9.116;2022-07-23T08:17:19;99847.75;;;33.08;33.87
55576;BME280;41437;45.478;9.116;2022-07-23T08:20:21;99852.25;;;33.09;33.57
55576;BME280;41437;45.478;9.116;2022-07-23T08:23:23;99846.13;;;33.11;33.81
55576;BME280;41437;45.478;9.116;2022-07-23T08:26:24;99853.88;;;33.14;33.59
55576;BME280;41437;45.478;9.116;2022-07-23T08:29:27;99849.78;;;33.15;33.59
55576;BME280;41437;45.478;9.116;2022-07-23T08:32:28;99853.00;;;33.17;33.82
55576;BME280;41437;45.478;9.116;2022-07-23T08:35:31;99852.63;;;33.18;33.90
55576;BME280;41437;45.478;9.116;2022-07-23T08:38:32;99850.56;;;33.19;33.97
55576;BME280;41437;45.478;9.116;2022-07-23T08:41:35;99848.09;;;33.21;34.13
55576;BME280;41437;45.478;9.116;2022-07-23T08:44:38;99848.91;;;33.21;34.02
55576;BME280;41437;45.478;9.116;2022-07-23T08:47:41;99838.72;;;33.24;34.27
55576;BME280;41437;45.478;9.116;2022-07-23T08:50:44;99845.66;;;33.26;34.33
55576;BME280;41437;45.478;9.116;2022-07-23T08:53:46;99843.59;;;33.27;34.33
55576;BME280;41437;45.478;9.116;2022-07-23T08:56:48;99841.13;;;33.29;34.46
55576;BME280;41437;45.478;9.116;2022-07-23T08:59:51;99839.91;;;33.30;34.59
55576;BME280;41437;45.478;9.116;2022-07-23T09:02:52;99849.69;;;33.33;34.65
55576;BME280;41437;45.478;9.116;2022-07-23T09:05:54;99846.41;;;33.34;34.66
55576;BME280;41437;45.478;9.116;2022-07-23T09:08:57;99841.91;;;33.37;34.95
55576;BME280;41437;45.478;9.116;2022-07-23T09:12:02;99839.88;;;33.37;34.80
55576;BME280;41437;45.478;9.116;2022-07-23T09:15:06;99839.06;;;33.40;35.05
55576;BME280;41437;45.478;9.116;2022-07-23T09:18:08;99841.47;;;33.42;35.17
55576;BME280;41437;45.478;9.116;2022-07-23T09:21:10;99839.06;;;33.44;35.32
55576;BME280;41437;45.478;9.116;2022-07-23T09:24:12;99841.50;;;33.45;35.08
55576;BME280;41437;45.478;9.116;2022-07-23T09:27:15;99829.25;;;33.48;35.39
55576;BME280;41437;45.478;9.116;2022-07-23T09:30:18;99830.88;;;33.49;35.57
55576;BME280;41437;45.478;9.116;2022-07-23T09:33:20;99829.63;;;33.50;35.52
55576;BME280;41437;45.478;9.116;2022-07-23T09:36:27;99829.19;;;33.52;35.63
55576;BME280;41437;45.478;9.116;2022-07-23T09:39:30;99821.84;;;33.55;35.79
55576;BME280;41437;45.478;9.116;2022-07-23T09:42:31;99827.94;;;33.57;35.72
55576;BME280;41437;45.478;9.116;2022-07-23T09:45:34;99825.50;;;33.59;35.89
55576;BME280;41437;45.478;9.116;2022-07-23T09:48:39;99818.53;;;33.60;35.96
55576;BME280;41437;45.478;9.116;2022-07-23T09:51:44;99816.91;;;33.62;36.15
55576;BME280;41437;45.478;9.116;2022-07-23T09:54:47;99824.25;;;33.63;36.21
55576;BME280;41437;45.478;9.116;2022-07-23T09:57:58;99812.78;;;33.67;36.05
55576;BME280;41437;45.478;9.116;2022-07-23T10:01:01;99815.22;;;33.68;36.03
55576;BME280;41437;45.478;9.116;2022-07-23T10:04:02;99816.03;;;33.69;36.50
55576;BME280;41437;45.478;9.116;2022-07-23T10:07:05;99806.25;;;33.70;36.46
55576;BME280;41437;45.478;9.116;2022-07-23T10:10:08;99820.50;;;33.73;36.55
55576;BME280;41437;45.478;9.116;2022-07-23T10:13:11;99820.09;;;33.75;36.69
55576;BME280;41437;45.478;9.116;2022-07-23T10:16:31;99816.00;;;33.76;36.68
55576;BME280;41437;45.478;9.116;2022-07-23T10:19:33;99812.72;;;33.77;37.10
55576;BME280;41437;45.478;9.116;2022-07-23T10:22:35;99811.06;;;33.80;36.66
55576;BME280;41437;45.478;9.116;2022-07-23T10:25:40;99801.25;;;33.81;36.98
55576;BME280;41437;45.478;9.116;2022-07-23T10:28:46;99804.53;;;33.83;36.95
55576;BME280;41437;45.478;9.116;2022-07-23T10:31:55;99800.41;;;33.84;36.87
55576;BME280;41437;45.478;9.116;2022-07-23T10:35:03;99793.03;;;33.87;37.03
55576;BME280;41437;45.478;9.116;2022-07-23T10:38:10;99787.72;;;33.89;36.92
55576;BME280;41437;45.478;9.116;2022-07-23T10:41:12;99788.91;;;33.91;37.12
55576;BME280;41437;45.478;9.116;2022-07-23T10:44:14;99782.78;;;33.93;36.90
55576;BME280;41437;45.478;9.116;2022-07-23T10:47:25;99774.59;;;33.95;37.32
55576;BME280;41437;45.478;9.116;2022-07-23T10:50:40;99774.59;;;33.98;37.27
55576;BME280;41437;45.478;9.116;2022-07-23T10:53:52;99762.34;;;34.01;37.52
55576;BME280;41437;45.478;9.116;2022-07-23T10:57:04;99761.09;;;34.03;38.07
55576;BME280;41437;45.478;9.116;2022-07-23T11:00:14;99753.72;;;34.05;37.79
55576;BME280;41437;45.478;9.116;2022-07-23T11:03:28;99761.88;;;34.07;37.96
55576;BME280;41437;45.478;9.116;2022-07-23T11:09:52;99763.47;;;34.11;37.96
55576;BME280;41437;45.478;9.116;2022-07-23T11:12:54;99760.16;;;34.13;37.99
55576;BME280;41437;45.478;9.116;2022-07-23T11:16:03;99749.94;;;34.15;38.54
55576;BME280;41437;45.478;9.116;2022-07-23T11:19:07;99746.66;;;34.17;38.57
55576;BME280;41437;45.478;9.116;2022-07-23T11:22:09;99745.44;;;34.18;38.02
55576;BME280;41437;45.478;9.116;2022-07-23T11:25:11;99749.91;;;34.19;38.19
55576;BME280;41437;45.478;9.116;2022-07-23T11:28:15;99754.75;;;34.22;37.95
55576;BME280;41437;45.478;9.116;2022-07-23T11:31:17;99752.75;;;34.22;38.09
55576;BME280;41437;45.478;9.116;2022-07-23T11:34:29;99741.66;;;34.24;38.06
55576;BME280;41437;45.478;9.116;2022-07-23T11:37:32;99734.72;;;34.25;38.47
55576;BME280;41437;45.478;9.116;2022-07-23T11:40:34;99738.78;;;34.28;38.40
55576;BME280;41437;45.478;9.116;2022-07-23T11:43:36;99736.28;;;34.30;38.52
55576;BME280;41437;45.478;9.116;2022-07-23T11:46:38;99733.84;;;34.32;38.55
55576;BME280;41437;45.478;9.116;2022-07-23T11:49:41;99724.81;;;34.34;38.57
55576;BME280;41437;45.478;9.116;2022-07-23T11:52:52;99724.78;;;34.37;39.27
55576;BME280;41437;45.478;9.116;2022-07-23T11:55:54;99713.72;;;34.39;39.29
55576;BME280;41437;45.478;9.116;2022-07-23T11:58:55;99714.13;;;34.41;39.26
55576;BME280;41437;45.478;9.116;2022-07-23T12:01:58;99718.59;;;34.42;39.01
55576;BME280;41437;45.478;9.116;2022-07-23T12:05:01;99714.06;;;34.45;38.81
55576;BME280;41437;45.478;9.116;2022-07-23T12:08:03;99701.38;;;34.46;38.69
55576;BME280;41437;45.478;9.116;2022-07-23T12:11:05;99700.97;;;34.47;38.96
55576;BME280;41437;45.478;9.116;2022-07-23T12:14:08;99694.03;;;34.48;38.86
55576;BME280;41437;45.478;9.116;2022-07-23T12:17:10;99694.41;;;34.50;38.70
55576;BME280;41437;45.478;9.116;2022-07-23T12:20:14;99704.22;;;34.53;38.67
55576;BME280;41437;45.478;9.116;2022-07-23T12:23:17;99696.81;;;34.56;38.93
55576;BME280;41437;45.478;9.116;2022-07-23T12:26:18;99702.91;;;34.58;38.60
55576;BME280;41437;45.478;9.116;2022-07-23T12:29:20;99693.47;;;34.61;38.73
55576;BME280;41437;45.478;9.116;2022-07-23T12:32:23;99691.84;;;34.60;38.91
55576;BME280;41437;45.478;9.116;2022-07-23T12:35:31;99693.84;;;34.63;38.72
55576;BME280;41437;45.478;9.116;2022-07-23T12:38:36;99686.09;;;34.63;38.66
55576;BME280;41437;45.478;9.116;2022-07-23T12:41:50;99685.22;;;34.66;38.66
55576;BME280;41437;45.478;9.116;2022-07-23T12:45:05;99684.78;;;34.68;38.78
55576;BME280;41437;45.478;9.116;2022-07-23T12:48:07;99682.69;;;34.72;38.70
55576;BME280;41437;45.478;9.116;2022-07-23T12:51:13;99688.78;;;34.74;38.78
55576;BME280;41437;45.478;9.116;2022-07-23T12:54:15;99683.47;;;34.76;38.73
55576;BME280;41437;45.478;9.116;2022-07-23T12:57:17;99693.66;;;34.77;38.82
55576;BME280;41437;45.478;9.116;2022-07-23T13:00:18;99689.94;;;34.80;38.67
55576;BME280;41437;45.478;9.116;2022-07-23T13:03:21;99692.38;;;34.82;38.75
55576;BME280;41437;45.478;9.116;2022-07-23T13:06:24;99685.00;;;34.84;38.60
55576;BME280;41437;45.478;9.116;2022-07-23T13:09:26;99680.88;;;34.85;38.38
55576;BME280;41437;45.478;9.116;2022-07-23T13:12:28;99675.53;;;34.87;38.62
55576;BME280;41437;45.478;9.116;2022-07-23T13:15:29;99682.44;;;34.90;38.74
55576;BME280;41437;45.478;9.116;2022-07-23T13:18:31;99669.34;;;34.92;38.65
55576;BME280;41437;45.478;9.116;2022-07-23T13:21:33;99666.84;;;34.94;38.66
55576;BME280;41437;45.478;9.116;2022-07-23T13:24:35;99670.09;;;34.96;38.60
55576;BME280;41437;45.478;9.116;2022-07-23T13:27:36;99663.53;;;34.99;38.63
55576;BME280;41437;45.478;9.116;2022-07-23T13:30:38;99667.19;;;35.00;38.46
55576;BME280;41437;45.478;9.116;2022-07-23T13:33:40;99659.81;;;35.03;38.23
55576;BME280;41437;45.478;9.116;2022-07-23T13:36:42;99660.16;;;35.05;38.35
55576;BME280;41437;45.478;9.116;2022-07-23T13:39:44;99654.44;;;35.05;38.18
55576;BME280;41437;45.478;9.116;2022-07-23T13:42:45;99656.09;;;35.06;38.12
55576;BME280;41437;45.478;9.116;2022-07-23T13:45:47;99653.59;;;35.08;38.13
55576;BME280;41437;45.478;9.116;2022-07-23T13:48:49;99648.66;;;35.08;38.12
55576;BME280;41437;45.478;9.116;2022-07-23T13:51:52;99644.59;;;35.09;38.12
55576;BME280;41437;45.478;9.116;2022-07-23T13:54:53;99646.19;;;35.10;37.87
55576;BME280;41437;45.478;9.116;2022-07-23T13:57:54;99654.34;;;35.12;37.90
55576;BME280;41437;45.478;9.116;2022-07-23T14:00:56;99640.03;;;35.12;38.32
55576;BME280;41437;45.478;9.116;2022-07-23T14:03:57;99635.50;;;35.14;37.89
55576;BME280;41437;45.478;9.116;2022-07-23T14:07:00;99641.22;;;35.14;37.67
55576;BME280;41437;45.478;9.116;2022-07-23T14:10:02;99636.66;;;35.17;37.83
55576;BME280;41437;45.478;9.116;2022-07-23T14:13:04;99624.00;;;35.18;37.97
55576;BME280;41437;45.478;9.116;2022-07-23T14:16:05;99629.72;;;35.18;37.77
55576;BME280;41437;45.478;9.116;2022-07-23T14:19:07;99624.34;;;35.20;37.81
55576;BME280;41437;45.478;9.116;2022-07-23T14:22:10;99624.34;;;35.20;37.85
55576;BME280;41437;45.478;9.116;2022-07-23T14:25:11;99633.31;;;35.22;37.74
55576;BME280;41437;45.478;9.116;2022-07-23T14:28:13;99627.16;;;35.23;37.89
55576;BME280;41437;45.478;9.116;2022-07-23T14:31:14;99618.13;;;35.25;37.71
55576;BME280;41437;45.478;9.116;2022-07-23T14:34:16;99624.66;;;35.25;37.52
55576;BME280;41437;45.478;9.116;2022-07-23T14:37:19;99620.56;;;35.27;37.52
55576;BME280;41437;45.478;9.116;2022-07-23T14:40:20;99613.94;;;35.30;37.66
55576;BME280;41437;45.478;9.116;2022-07-23T14:43:23;99614.75;;;35.30;37.42
55576;BME280;41437;45.478;9.116;2022-07-23T14:46:24;99608.16;;;35.33;37.53
55576;BME280;41437;45.478;9.116;2022-07-23T14:49:26;99608.53;;;35.35;37.68
55576;BME280;41437;45.478;9.116;2022-07-23T14:52:29;99598.72;;;35.36;37.59
55576;BME280;41437;45.478;9.116;2022-07-23T14:55:30;99606.06;;;35.37;37.61
55576;BME280;41437;45.478;9.116;2022-07-23T14:58:31;99604.38;;;35.40;37.72
55576;BME280;41437;45.478;9.116;2022-07-23T15:01:33;99595.34;;;35.41;37.48
55576;BME280;41437;45.478;9.116;2022-07-23T15:04:34;99604.28;;;35.43;37.69
55576;BME280;41437;45.478;9.116;2022-07-23T15:07:38;99599.38;;;35.44;37.56
55576;BME280;41437;45.478;9.116;2022-07-23T15:10:39;99591.16;;;35.46;37.70
55576;BME280;41437;45.478;9.116;2022-07-23T15:13:41;99594.84;;;35.46;37.61
55576;BME280;41437;45.478;9.116;2022-07-23T15:16:42;99591.56;;;35.48;37.55
55576;BME280;41437;45.478;9.116;2022-07-23T15:19:44;99588.28;;;35.49;37.36
55576;BME280;41437;45.478;9.116;2022-07-23T15:22:47;99598.47;;;35.50;37.67
55576;BME280;41437;45.478;9.116;2022-07-23T15:25:48;99580.94;;;35.48;37.27
55576;BME280;41437;45.478;9.116;2022-07-23T15:28:50;99589.03;;;35.54;37.56
55576;BME280;41437;45.478;9.116;2022-07-23T15:31:51;99591.44;;;35.55;37.41
55576;BME280;41437;45.478;9.116;2022-07-23T15:34:54;99586.50;;;35.56;37.79
55576;BME280;41437;45.478;9.116;2022-07-23T15:37:57;99593.84;;;35.57;37.54
55576;BME280;41437;45.478;9.116;2022-07-23T15:40:58;99595.50;;;35.58;37.50
55576;BME280;41437;45.478;9.116;2022-07-23T15:44:00;99589.78;;;35.58;37.43
55576;BME280;41437;45.478;9.116;2022-07-23T15:47:01;99587.72;;;35.58;37.25
55576;BME280;41437;45.478;9.116;2022-07-23T15:50:03;99587.25;;;35.60;37.39
55576;BME280;41437;45.478;9.116;2022-07-23T15:53:06;99583.59;;;35.59;37.17
55576;BME280;41437;45.478;9.116;2022-07-23T15:56:08;99587.25;;;35.60;37.26
55576;BME280;41437;45.478;9.116;2022-07-23T15:59:09;99582.34;;;35.60;37.34
55576;BME280;41437;45.478;9.116;2022-07-23T16:02:11;99578.66;;;35.60;37.14
55576;BME280;41437;45.478;9.116;2022-07-23T16:05:12;99570.88;;;35.60;37.15
55576;BME280;41437;45.478;9.116;2022-07-23T16:08:15;99573.31;;;35.62;37.16